createdAt,value
2023-03-02T00:02:00.238Z,101686.91
2023-03-02T00:04:29.419Z,101687.31
2023-03-02T00:06:58.493Z,101676.94
2023-03-02T00:09:24.912Z,101671.47
2023-03-02T00:11:51.570Z,101673.31
2023-03-02T00:14:17.975Z,101676.88
2023-03-02T00:16:44.350Z,101679.97
2023-03-02T00:19:10.827Z,101680.31
2023-03-02T00:21:37.208Z,101675.28
2023-03-02T00:24:04.589Z,101674.22
2023-03-02T00:26:36.139Z,101671.38
2023-03-02T00:29:03.193Z,101671.03
2023-03-02T00:31:29.604Z,101676.47
2023-03-02T00:33:56.015Z,101674.09
2023-03-02T00:36:23.298Z,101674.63
2023-03-02T00:38:49.995Z,101676.78
2023-03-02T00:41:16.847Z,101672.28
2023-03-02T00:43:43.243Z,101667.66
2023-03-02T00:46:22.218Z,101670.25
2023-03-02T00:48:49.064Z,101674.88
2023-03-02T00:51:15.698Z,101673.81
2023-03-02T00:53:42.179Z,101675.13
2023-03-02T00:56:08.798Z,101686.53
2023-03-02T00:58:35.281Z,101680.31
2023-03-02T01:01:09.994Z,101686.41
2023-03-02T01:03:37.038Z,101680.31
2023-03-02T01:06:04.688Z,101682.19
2023-03-02T01:08:31.135Z,101681.47
2023-03-02T01:11:01.162Z,101683.31
2023-03-02T01:13:28.263Z,101679.09
2023-03-02T01:16:02.372Z,101681.91
2023-03-02T01:18:28.852Z,101681.19
2023-03-02T01:21:07.137Z,101671.41
2023-03-02T01:23:33.821Z,101674.44
2023-03-02T01:26:00.191Z,101675.25
2023-03-02T01:28:26.663Z,101680.34
2023-03-02T01:30:54.197Z,101669.66
2023-03-02T01:33:21.446Z,101669.22
2023-03-02T01:35:48.121Z,101670.81
2023-03-02T01:38:14.823Z,101666.78
2023-03-02T01:40:41.308Z,101664.75
2023-03-02T01:43:12.765Z,101674.97
2023-03-02T01:45:57.754Z,101666.16
2023-03-02T01:48:39.228Z,101663.94
2023-03-02T01:51:07.365Z,101665.69
2023-03-02T01:53:35.014Z,101659.16
2023-03-02T01:56:02.761Z,101660.69
2023-03-02T01:58:32.396Z,101655.09
2023-03-02T02:00:58.841Z,101658.44
2023-03-02T02:03:27.762Z,101653.84
2023-03-02T02:06:17.893Z,101654.13
2023-03-02T02:08:45.619Z,101650.69
2023-03-02T02:11:12.931Z,101642.19
2023-03-02T02:13:39.456Z,101653.44
2023-03-02T02:16:06.741Z,101639.88
2023-03-02T02:18:36.078Z,101637.72
2023-03-02T02:21:02.502Z,101626.97
2023-03-02T02:23:34.844Z,101623.91
2023-03-02T02:26:18.133Z,101625.44
2023-03-02T02:28:57.534Z,101621.91
2023-03-02T02:31:30.450Z,101611.81
2023-03-02T02:34:02.263Z,101609.28
2023-03-02T02:36:33.476Z,101609.19
2023-03-02T02:39:03.458Z,101602.28
2023-03-02T02:41:34.360Z,101599.41
2023-03-02T02:44:00.766Z,101596.34
2023-03-02T02:46:27.547Z,101600.13
2023-03-02T02:48:53.987Z,101599.59
2023-03-02T02:51:23.720Z,101597.00
2023-03-02T02:54:01.019Z,101602.91
2023-03-02T02:56:30.969Z,101592.38
2023-03-02T02:59:07.795Z,101594.56
2023-03-02T03:01:34.812Z,101604.94
2023-03-02T03:04:04.036Z,101599.34
2023-03-02T03:06:38.340Z,101609.03
2023-03-02T03:09:10.602Z,101605.38
2023-03-02T03:11:38.290Z,101604.44
2023-03-02T03:14:11.805Z,101609.91
2023-03-02T03:16:40.742Z,101611.44
2023-03-02T03:19:16.385Z,101610.50
2023-03-02T03:21:42.866Z,101605.97
2023-03-02T03:24:09.313Z,101604.63
2023-03-02T03:26:35.748Z,101606.47
2023-03-02T03:29:02.720Z,101612.97
2023-03-02T03:31:29.126Z,101593.50
2023-03-02T03:33:56.250Z,101607.75
2023-03-02T03:36:22.850Z,101605.97
2023-03-02T03:38:49.252Z,101602.06
2023-03-02T03:41:15.702Z,101600.81
2023-03-02T03:43:42.089Z,101599.34
2023-03-02T03:46:08.604Z,101600.03
2023-03-02T03:48:35.046Z,101601.47
2023-03-02T03:51:01.443Z,101594.06
2023-03-02T03:53:28.164Z,101600.34
2023-03-02T03:55:56.819Z,101602.28
2023-03-02T03:58:24.555Z,101604.06
2023-03-02T04:00:52.027Z,101607.31
2023-03-02T04:03:19.685Z,101617.63
2023-03-02T04:05:46.911Z,101611.69
2023-03-02T04:08:13.377Z,101615.88
2023-03-02T04:10:39.974Z,101618.00
2023-03-02T04:13:06.753Z,101626.13
2023-03-02T04:15:33.261Z,101623.09
2023-03-02T04:18:00.107Z,101626.56
2023-03-02T04:20:26.983Z,101628.44
2023-03-02T04:22:54.602Z,101625.69
2023-03-02T04:25:24.144Z,101627.06
2023-03-02T04:27:51.622Z,101620.72
2023-03-02T04:30:20.911Z,101621.50
2023-03-02T04:32:47.288Z,101624.78
2023-03-02T04:35:14.718Z,101620.59
2023-03-02T04:37:41.955Z,101618.75
2023-03-02T04:40:09.978Z,101626.06
2023-03-02T04:42:36.363Z,101628.66
2023-03-02T04:45:02.779Z,101629.88
2023-03-02T04:47:29.156Z,101629.47
2023-03-02T04:49:56.618Z,101621.63
2023-03-02T04:52:23.755Z,101625.91
2023-03-02T04:54:50.146Z,101619.69
2023-03-02T04:57:16.516Z,101624.81
2023-03-02T04:59:42.879Z,101626.44
2023-03-02T05:02:10.312Z,101626.00
2023-03-02T05:04:36.895Z,101622.75
2023-03-02T05:07:03.400Z,101618.59
2023-03-02T05:09:30.843Z,101618.72
2023-03-02T05:11:59.076Z,101623.78
2023-03-02T05:14:25.631Z,101611.47
2023-03-02T05:16:52.097Z,101618.06
2023-03-02T05:19:18.912Z,101615.00
2023-03-02T05:21:45.394Z,101611.28
2023-03-02T05:24:12.956Z,101613.41
2023-03-02T05:26:40.080Z,101612.19
2023-03-02T05:29:06.538Z,101605.56
2023-03-02T05:31:35.717Z,101607.81
2023-03-02T05:34:03.732Z,101604.34
2023-03-02T05:36:30.327Z,101605.38
2023-03-02T05:38:58.225Z,101605.50
2023-03-02T05:41:24.833Z,101598.16
2023-03-02T05:43:51.619Z,101598.56
2023-03-02T05:46:19.442Z,101600.72
2023-03-02T05:48:47.239Z,101595.13
2023-03-02T05:51:13.644Z,101601.44
2023-03-02T05:53:40.063Z,101600.00
2023-03-02T05:56:07.171Z,101599.41
2023-03-02T05:58:33.570Z,101608.06
2023-03-02T06:01:00.842Z,101604.47
2023-03-02T06:03:27.240Z,101616.69
2023-03-02T06:05:53.642Z,101617.94
2023-03-02T06:08:21.538Z,101618.16
2023-03-02T06:10:50.556Z,101622.72
2023-03-02T06:13:16.965Z,101616.25
2023-03-02T06:15:43.815Z,101610.69
2023-03-02T06:18:12.396Z,101617.25
2023-03-02T06:20:39.495Z,101617.59
2023-03-02T06:23:06.396Z,101622.28
2023-03-02T06:25:32.817Z,101628.25
2023-03-02T06:27:59.198Z,101621.97
2023-03-02T06:30:26.033Z,101629.84
2023-03-02T06:32:52.571Z,101633.28
2023-03-02T06:35:19.377Z,101642.56
2023-03-02T06:37:45.899Z,101640.03
2023-03-02T06:40:13.668Z,101633.78
2023-03-02T06:42:41.684Z,101642.66
2023-03-02T06:45:09.173Z,101637.19
2023-03-02T06:47:35.569Z,101640.28
2023-03-02T06:50:02.111Z,101641.81
2023-03-02T06:52:28.705Z,101642.59
2023-03-02T06:54:55.325Z,101645.38
2023-03-02T06:57:21.735Z,101643.63
2023-03-02T06:59:48.135Z,101634.38
2023-03-02T07:02:14.549Z,101639.97
2023-03-02T07:04:41.021Z,101642.13
2023-03-02T07:07:07.460Z,101638.78
2023-03-02T07:09:34.040Z,101635.19
2023-03-02T07:12:00.515Z,101635.31
2023-03-02T07:14:26.916Z,101646.69
2023-03-02T07:16:53.878Z,101644.44
2023-03-02T07:19:20.397Z,101647.09
2023-03-02T07:21:46.783Z,101647.19
2023-03-02T07:24:13.159Z,101636.38
2023-03-02T07:26:39.610Z,101644.00
2023-03-02T07:29:05.975Z,101641.97
2023-03-02T07:31:32.699Z,101645.03
2023-03-02T07:33:59.252Z,101639.41
2023-03-02T07:36:26.307Z,101638.66
2023-03-02T07:38:52.775Z,101643.06
2023-03-02T07:41:19.176Z,101635.75
2023-03-02T07:43:45.675Z,101634.28
2023-03-02T07:46:12.130Z,101636.06
2023-03-02T07:48:38.528Z,101634.59
2023-03-02T07:51:06.204Z,101642.59
2023-03-02T07:53:32.738Z,101643.13
2023-03-02T07:56:01.263Z,101642.81
2023-03-02T07:58:27.899Z,101648.03
2023-03-02T08:00:54.331Z,101647.31
2023-03-02T08:03:20.760Z,101644.84
2023-03-02T08:05:47.203Z,101642.63
2023-03-02T08:08:13.630Z,101632.06
2023-03-02T08:10:40.178Z,101640.84
2023-03-02T08:13:06.563Z,101643.00
2023-03-02T08:15:32.953Z,101637.22
2023-03-02T08:17:59.353Z,101631.47
2023-03-02T08:20:26.216Z,101635.50
2023-03-02T08:22:52.665Z,101628.56
2023-03-02T08:25:19.122Z,101622.41
2023-03-02T08:27:46.087Z,101627.69
2023-03-02T08:30:13.245Z,101623.31
2023-03-02T08:32:39.852Z,101635.94
2023-03-02T08:35:07.095Z,101629.09
2023-03-02T08:37:33.952Z,101630.25
2023-03-02T08:40:00.331Z,101633.06
2023-03-02T08:42:26.753Z,101630.63
2023-03-02T08:44:53.144Z,101634.47
2023-03-02T08:47:19.584Z,101620.69
2023-03-02T08:49:48.022Z,101613.75
2023-03-02T08:52:15.213Z,101620.59
2023-03-02T08:54:42.009Z,101619.44
2023-03-02T08:57:11.418Z,101611.69
2023-03-02T08:59:37.809Z,101608.16
2023-03-02T09:02:04.214Z,101601.72
2023-03-02T09:04:30.669Z,101593.75
2023-03-02T09:06:57.091Z,101597.97
2023-03-02T09:09:23.508Z,101586.16
2023-03-02T09:11:50.088Z,101588.53
2023-03-02T09:14:16.698Z,101591.06
2023-03-02T09:16:43.204Z,101586.88
2023-03-02T09:19:10.668Z,101585.78
2023-03-02T09:21:37.035Z,101587.97
2023-03-02T09:24:03.467Z,101588.50
2023-03-02T09:26:29.823Z,101585.38
2023-03-02T09:28:56.899Z,101572.78
2023-03-02T09:31:23.725Z,101576.44
2023-03-02T09:33:50.179Z,101579.53
2023-03-02T09:36:21.545Z,101576.34
2023-03-02T09:38:48.389Z,101571.56
2023-03-02T09:41:34.608Z,101567.03
2023-03-02T09:44:11.161Z,101578.63
2023-03-02T09:46:54.526Z,101564.22
2023-03-02T09:49:32.052Z,101575.63
2023-03-02T09:52:11.636Z,101567.00
2023-03-02T09:54:38.923Z,101571.66
2023-03-02T09:57:19.625Z,101573.50
2023-03-02T09:59:50.114Z,101576.34
2023-03-02T10:02:29.710Z,101570.97
2023-03-02T10:04:58.079Z,101573.94
2023-03-02T10:07:35.725Z,101575.09
2023-03-02T10:10:24.281Z,101562.06
2023-03-02T10:13:27.929Z,101573.38
2023-03-02T10:16:01.171Z,101562.50
2023-03-02T10:19:04.471Z,101566.19
2023-03-02T10:21:38.224Z,101561.22
2023-03-02T10:24:29.752Z,101557.69
2023-03-02T10:27:02.117Z,101550.75
2023-03-02T10:29:28.562Z,101543.63
2023-03-02T10:32:24.252Z,101549.47
2023-03-02T10:34:52.167Z,101543.25
2023-03-02T10:37:25.200Z,101550.47
2023-03-02T10:39:52.369Z,101537.22
2023-03-02T10:42:22.688Z,101536.81
2023-03-02T10:44:51.705Z,101530.41
2023-03-02T10:47:23.765Z,101535.09
2023-03-02T10:49:50.794Z,101538.69
2023-03-02T10:52:22.787Z,101532.88
2023-03-02T10:54:49.221Z,101533.06
2023-03-02T10:57:28.902Z,101533.94
2023-03-02T11:00:15.678Z,101532.56
2023-03-02T11:02:50.134Z,101536.22
2023-03-02T11:05:31.755Z,101533.75
2023-03-02T11:08:19.527Z,101530.38
2023-03-02T11:11:03.365Z,101528.75
2023-03-02T11:13:35.752Z,101533.50
2023-03-02T11:16:05.038Z,101524.91
2023-03-02T11:18:43.147Z,101529.63
2023-03-02T11:21:17.544Z,101521.81
2023-03-02T11:23:56.550Z,101527.72
2023-03-02T11:26:38.246Z,101525.88
2023-03-02T11:29:21.583Z,101528.88
2023-03-02T11:32:13.749Z,101523.75
2023-03-02T11:34:48.840Z,101517.81
2023-03-02T11:37:21.588Z,101516.84
2023-03-02T11:39:55.045Z,101508.31
2023-03-02T11:42:27.263Z,101496.84
2023-03-02T11:44:53.899Z,101495.41
2023-03-02T11:47:20.504Z,101496.53
2023-03-02T11:49:53.094Z,101498.34
2023-03-02T11:52:22.321Z,101489.00
2023-03-02T11:55:04.019Z,101489.47
2023-03-02T11:57:37.950Z,101486.06
2023-03-02T12:00:12.774Z,101484.56
2023-03-02T12:02:39.174Z,101475.97
2023-03-02T12:05:20.459Z,101477.63
2023-03-02T12:07:59.755Z,101476.78
2023-03-02T12:10:42.306Z,101470.66
2023-03-02T12:13:20.367Z,101473.84
2023-03-02T12:15:50.758Z,101463.78
2023-03-02T12:18:23.468Z,101464.25
2023-03-02T12:21:10.361Z,101461.78
2023-03-02T12:23:53.377Z,101465.63
2023-03-02T12:26:19.782Z,101464.00
2023-03-02T12:29:05.016Z,101448.81
2023-03-02T12:31:40.662Z,101458.84
2023-03-02T12:34:25.652Z,101453.78
2023-03-02T12:36:59.693Z,101440.69
2023-03-02T12:40:04.367Z,101449.38
2023-03-02T12:42:55.791Z,101448.34
2023-03-02T12:45:54.927Z,101439.47
2023-03-02T12:48:28.341Z,101443.69
2023-03-02T12:51:02.668Z,101441.72
2023-03-02T12:53:29.703Z,101439.59
2023-03-02T12:55:56.461Z,101439.06
2023-03-02T12:58:28.002Z,101430.78
2023-03-02T13:00:57.255Z,101429.91
2023-03-02T13:03:26.249Z,101424.59
2023-03-02T13:06:01.394Z,101423.50
2023-03-02T13:08:28.813Z,101419.84
2023-03-02T13:10:57.057Z,101409.31
2023-03-02T13:13:26.894Z,101408.00
2023-03-02T13:15:57.780Z,101412.91
2023-03-02T13:18:27.498Z,101395.88
2023-03-02T13:20:54.336Z,101395.63
2023-03-02T13:23:20.936Z,101397.41
2023-03-02T13:25:52.575Z,101390.41
2023-03-02T13:28:36.169Z,101389.25
2023-03-02T13:31:14.476Z,101381.19
2023-03-02T13:33:45.130Z,101382.59
2023-03-02T13:36:23.684Z,101377.56
2023-03-02T13:38:51.941Z,101380.66
2023-03-02T13:41:33.220Z,101374.09
2023-03-02T13:44:00.105Z,101380.06
2023-03-02T13:46:29.251Z,101380.16
2023-03-02T13:49:09.143Z,101378.00
2023-03-02T13:51:40.395Z,101376.56
2023-03-02T13:54:35.032Z,101370.69
2023-03-02T13:57:03.426Z,101356.94
2023-03-02T13:59:32.052Z,101356.88
2023-03-02T14:01:58.799Z,101359.94
2023-03-02T14:04:25.310Z,101353.78
2023-03-02T14:06:53.316Z,101351.22
2023-03-02T14:09:20.216Z,101337.91
2023-03-02T14:11:55.196Z,101323.41
2023-03-02T14:14:23.989Z,101322.66
2023-03-02T14:16:51.058Z,101313.84
2023-03-02T14:19:18.328Z,101314.75
2023-03-02T14:21:45.815Z,101316.75
2023-03-02T14:24:12.240Z,101307.31
2023-03-02T14:26:46.246Z,101319.47
2023-03-02T14:29:23.610Z,101320.66
2023-03-02T14:31:50.028Z,101329.19
2023-03-02T14:34:17.325Z,101327.44
2023-03-02T14:36:45.836Z,101318.50
2023-03-02T14:39:21.938Z,101321.25
2023-03-02T14:41:53.813Z,101319.59
2023-03-02T14:44:20.743Z,101320.59
2023-03-02T14:46:47.461Z,101317.84
2023-03-02T14:49:13.980Z,101321.25
2023-03-02T14:51:41.814Z,101321.91
2023-03-02T14:54:12.907Z,101317.84
2023-03-02T14:56:39.427Z,101322.81
2023-03-02T14:59:05.889Z,101317.06
2023-03-02T15:01:32.507Z,101321.66
2023-03-02T15:03:59.128Z,101320.41
2023-03-02T15:06:28.270Z,101314.44
2023-03-02T15:08:59.836Z,101313.69
2023-03-02T15:11:27.618Z,101324.59
2023-03-02T15:13:54.831Z,101329.28
2023-03-02T15:16:21.403Z,101324.03
2023-03-02T15:18:52.064Z,101317.56
2023-03-02T15:21:21.207Z,101326.31
2023-03-02T15:23:47.721Z,101320.59
2023-03-02T15:26:14.932Z,101319.72
2023-03-02T15:28:41.492Z,101321.56
2023-03-02T15:31:09.573Z,101320.31
2023-03-02T15:33:36.225Z,101323.31
2023-03-02T15:36:03.030Z,101321.34
2023-03-02T15:38:29.480Z,101319.47
2023-03-02T15:40:55.883Z,101313.19
2023-03-02T15:43:22.323Z,101322.66
2023-03-02T15:45:48.716Z,101315.50
2023-03-02T15:48:15.262Z,101322.63
2023-03-02T15:50:41.672Z,101330.81
2023-03-02T15:53:08.058Z,101318.34
2023-03-02T15:55:34.472Z,101331.16
2023-03-02T15:58:00.869Z,101326.69
2023-03-02T16:00:27.269Z,101328.09
2023-03-02T16:02:53.661Z,101327.78
2023-03-02T16:05:20.067Z,101331.44
2023-03-02T16:07:46.457Z,101337.31
2023-03-02T16:10:16.273Z,101333.56
2023-03-02T16:12:42.777Z,101329.66
2023-03-02T16:15:09.468Z,101336.72
2023-03-02T16:17:35.849Z,101335.97
2023-03-02T16:20:02.492Z,101329.69
2023-03-02T16:22:28.844Z,101339.34
2023-03-02T16:24:55.207Z,101347.44
2023-03-02T16:27:21.580Z,101339.81
2023-03-02T16:29:48.006Z,101345.03
2023-03-02T16:32:14.643Z,101355.38
2023-03-02T16:34:41.138Z,101354.75
2023-03-02T16:37:07.547Z,101352.94
2023-03-02T16:39:33.936Z,101358.06
2023-03-02T16:42:00.308Z,101351.59
2023-03-02T16:44:26.720Z,101352.91
2023-03-02T16:46:53.419Z,101353.84
2023-03-02T16:49:20.241Z,101353.25
2023-03-02T16:51:46.679Z,101363.75
2023-03-02T16:54:15.933Z,101372.38
2023-03-02T16:56:45.062Z,101370.63
2023-03-02T16:59:11.562Z,101370.69
2023-03-02T17:01:37.976Z,101383.16
2023-03-02T17:04:06.038Z,101381.09
2023-03-02T17:06:32.577Z,101381.25
2023-03-02T17:08:59.004Z,101391.09
2023-03-02T17:11:25.469Z,101388.66
2023-03-02T17:13:51.907Z,101397.97
2023-03-02T17:16:19.142Z,101401.47
2023-03-02T17:18:48.422Z,101400.44
2023-03-02T17:21:16.488Z,101406.97
2023-03-02T17:23:43.365Z,101414.66
2023-03-02T17:26:09.762Z,101418.09
2023-03-02T17:28:36.221Z,101424.31
2023-03-02T17:31:04.398Z,101429.63
2023-03-02T17:33:32.039Z,101432.69
2023-03-02T17:35:58.425Z,101439.88
2023-03-02T17:38:24.827Z,101438.03
2023-03-02T17:40:51.207Z,101434.50
2023-03-02T17:43:17.599Z,101445.31
2023-03-02T17:45:44.022Z,101446.00
2023-03-02T17:48:10.401Z,101445.19
2023-03-02T17:50:37.350Z,101452.03
2023-03-02T17:53:04.044Z,101450.03
2023-03-02T17:55:30.529Z,101454.34
2023-03-02T17:57:57.112Z,101463.13
2023-03-02T18:00:24.188Z,101460.97
2023-03-02T18:02:51.184Z,101467.28
2023-03-02T18:05:18.200Z,101478.97
2023-03-02T18:07:44.589Z,101481.22
2023-03-02T18:10:11.552Z,101490.09
2023-03-02T18:12:38.054Z,101496.00
2023-03-02T18:15:05.365Z,101501.69
2023-03-02T18:17:31.744Z,101494.69
2023-03-02T18:19:58.154Z,101501.19
2023-03-02T18:22:24.563Z,101508.53
2023-03-02T18:24:51.871Z,101509.94
2023-03-02T18:27:18.675Z,101513.06
2023-03-02T18:29:45.143Z,101515.91
2023-03-02T18:32:11.715Z,101526.47
2023-03-02T18:34:38.424Z,101531.31
2023-03-02T18:37:04.799Z,101531.47
2023-03-02T18:39:31.175Z,101537.16
2023-03-02T18:41:57.590Z,101546.44
2023-03-02T18:44:27.974Z,101548.97
2023-03-02T18:46:55.126Z,101550.06
2023-03-02T18:49:21.561Z,101552.31
2023-03-02T18:51:48.499Z,101553.38
2023-03-02T18:54:14.987Z,101556.84
2023-03-02T18:56:41.502Z,101556.31
2023-03-02T18:59:09.448Z,101558.38
2023-03-02T19:01:35.886Z,101566.97
2023-03-02T19:04:03.504Z,101572.59
2023-03-02T19:06:29.923Z,101570.06
2023-03-02T19:08:56.452Z,101562.19
2023-03-02T19:11:22.839Z,101563.13
2023-03-02T19:13:49.267Z,101567.16
2023-03-02T19:16:17.275Z,101575.38
2023-03-02T19:18:44.662Z,101574.47
2023-03-02T19:21:11.103Z,101569.88
2023-03-02T19:23:38.303Z,101572.25
2023-03-02T19:26:04.969Z,101577.53
2023-03-02T19:28:33.737Z,101579.19
2023-03-02T19:31:03.985Z,101579.56
2023-03-02T19:33:30.369Z,101588.69
2023-03-02T19:35:56.799Z,101586.59
2023-03-02T19:38:23.795Z,101594.16
2023-03-02T19:40:50.187Z,101584.81
2023-03-02T19:43:16.641Z,101583.75
2023-03-02T19:45:43.142Z,101594.91
2023-03-02T19:48:13.544Z,101597.59
2023-03-02T19:50:40.036Z,101595.72
2023-03-02T19:53:06.585Z,101595.16
2023-03-02T19:55:34.034Z,101601.91
2023-03-02T19:58:01.905Z,101600.84
2023-03-02T20:00:30.154Z,101597.16
2023-03-02T20:02:57.457Z,101608.22
2023-03-02T20:05:25.839Z,101604.22
2023-03-02T20:07:52.226Z,101616.44
2023-03-02T20:10:31.502Z,101611.22
2023-03-02T20:12:59.555Z,101613.41
2023-03-02T20:15:30.257Z,101620.75
2023-03-02T20:17:58.317Z,101625.50
2023-03-02T20:20:26.829Z,101628.47
2023-03-02T20:22:53.442Z,101630.50
2023-03-02T20:25:20.231Z,101631.50
2023-03-02T20:27:49.038Z,101640.84
2023-03-02T20:30:19.500Z,101645.81
2023-03-02T20:32:45.880Z,101648.59
2023-03-02T20:35:12.809Z,101645.38
2023-03-02T20:37:39.670Z,101640.88
2023-03-02T20:40:07.718Z,101641.28
2023-03-02T20:42:35.940Z,101637.28
2023-03-02T20:45:04.191Z,101635.16
2023-03-02T20:47:30.967Z,101636.03
2023-03-02T20:49:57.471Z,101646.13
2023-03-02T20:52:23.873Z,101650.69
2023-03-02T20:54:50.351Z,101646.72
2023-03-02T20:57:19.064Z,101646.84
2023-03-02T20:59:45.926Z,101651.94
2023-03-02T21:02:17.980Z,101642.06
2023-03-02T21:04:44.592Z,101648.53
2023-03-02T21:07:11.624Z,101643.81
2023-03-02T21:09:39.064Z,101644.03
2023-03-02T21:12:08.612Z,101645.41
2023-03-02T21:14:35.276Z,101644.06
2023-03-02T21:17:01.806Z,101649.34
2023-03-02T21:19:32.470Z,101648.03
2023-03-02T21:21:58.861Z,101639.66
2023-03-02T21:24:25.597Z,101642.50
2023-03-02T21:26:53.309Z,101642.03
2023-03-02T21:29:21.577Z,101643.34
2023-03-02T21:31:48.340Z,101651.72
2023-03-02T21:34:15.864Z,101646.47
2023-03-02T21:36:43.043Z,101638.63
2023-03-02T21:39:09.593Z,101630.81
2023-03-02T21:41:36.307Z,101626.69
2023-03-02T21:44:05.328Z,101637.75
2023-03-02T21:46:33.502Z,101637.22
2023-03-02T21:48:59.983Z,101628.94
2023-03-02T21:51:26.389Z,101624.31
2023-03-02T21:53:53.153Z,101626.16
2023-03-02T21:56:22.289Z,101630.34
2023-03-02T21:58:49.873Z,101637.41
2023-03-02T22:01:16.347Z,101635.94
2023-03-02T22:03:42.786Z,101636.25
2023-03-02T22:06:20.974Z,101627.75
2023-03-02T22:08:47.376Z,101632.81
2023-03-02T22:11:20.211Z,101631.72
2023-03-02T22:13:48.101Z,101641.72
2023-03-02T22:16:16.064Z,101633.50
2023-03-02T22:18:43.496Z,101632.03
2023-03-02T22:21:25.028Z,101630.97
2023-03-02T22:24:10.908Z,101641.13
2023-03-02T22:26:40.500Z,101639.78
2023-03-02T22:29:18.894Z,101641.38
2023-03-02T22:31:47.580Z,101639.91
2023-03-02T22:34:33.048Z,101639.78
2023-03-02T22:37:10.002Z,101637.09
2023-03-02T22:39:36.391Z,101625.84
2023-03-02T22:42:15.909Z,101630.91
2023-03-02T22:44:42.915Z,101630.94
2023-03-02T22:47:15.409Z,101641.38
2023-03-02T22:49:41.805Z,101647.91
2023-03-02T22:52:14.002Z,101653.13
2023-03-02T22:54:40.287Z,101649.34
2023-03-02T22:57:17.845Z,101659.03
2023-03-02T22:59:44.268Z,101653.63
2023-03-02T23:02:17.970Z,101653.88
2023-03-02T23:04:45.600Z,101655.31
2023-03-02T23:07:19.673Z,101654.97
2023-03-02T23:09:46.116Z,101649.28
2023-03-02T23:12:19.314Z,101654.44
2023-03-02T23:14:51.363Z,101651.72
2023-03-02T23:17:26.481Z,101644.09
2023-03-02T23:19:52.918Z,101654.44
2023-03-02T23:22:19.477Z,101649.81
2023-03-02T23:24:45.876Z,101641.00
2023-03-02T23:27:12.312Z,101650.25
2023-03-02T23:29:38.726Z,101642.81
2023-03-02T23:32:05.346Z,101657.50
2023-03-02T23:34:31.872Z,101652.16
2023-03-02T23:36:58.913Z,101652.31
2023-03-02T23:39:25.872Z,101659.00
2023-03-02T23:41:52.393Z,101654.00
2023-03-02T23:44:19.327Z,101649.91
2023-03-02T23:46:46.399Z,101643.69
2023-03-02T23:49:12.802Z,101647.91
2023-03-02T23:51:39.301Z,101651.22
2023-03-02T23:54:05.725Z,101656.47
2023-03-02T23:56:32.146Z,101646.78
2023-03-02T23:58:58.569Z,101649.44
